createdAt,value
2019-05-12T00:02:04.502Z,79.38
2019-05-12T00:04:31.535Z,78.27
2019-05-12T00:06:58.703Z,77.69
2019-05-12T00:09:28.211Z,77.29
2019-05-12T00:11:59.033Z,77.06
2019-05-12T00:14:28.140Z,77.09
2019-05-12T00:16:55.414Z,77.19
2019-05-12T00:19:22.475Z,76.87
2019-05-12T00:21:49.667Z,77.83
2019-05-12T00:24:18.739Z,78.88
2019-05-12T00:26:47.601Z,79.88
2019-05-12T00:29:14.642Z,79.64
2019-05-12T00:31:42.230Z,79.29
2019-05-12T00:34:09.302Z,78.48
2019-05-12T00:36:37.966Z,78.24
2019-05-12T00:39:08.555Z,78.57
2019-05-12T00:41:35.542Z,78.83
2019-05-12T00:44:02.614Z,80.44
2019-05-12T00:46:29.702Z,81.26
2019-05-12T00:48:58.543Z,81.55
2019-05-12T00:51:25.670Z,81.24
2019-05-12T00:53:52.720Z,81.04
2019-05-12T00:56:19.780Z,81.14
2019-05-12T00:58:48.777Z,80.98
2019-05-12T01:01:18.265Z,80.41
2019-05-12T01:03:44.817Z,80.14
2019-05-12T01:06:11.855Z,80.11
2019-05-12T01:08:40.403Z,80.32
2019-05-12T01:11:08.785Z,80.72
2019-05-12T01:13:38.116Z,81.65
2019-05-12T01:16:05.095Z,82.15
2019-05-12T01:18:32.349Z,82.57
2019-05-12T01:20:59.591Z,82.67
2019-05-12T01:23:28.089Z,82.62
2019-05-12T01:25:58.286Z,82.50
2019-05-12T01:28:27.817Z,82.49
2019-05-12T01:30:58.217Z,82.35
2019-05-12T01:33:27.522Z,82.26
2019-05-12T01:35:54.289Z,82.25
2019-05-12T01:38:21.349Z,82.19
2019-05-12T01:40:48.402Z,81.88
2019-05-12T01:43:15.543Z,81.59
2019-05-12T01:45:42.596Z,81.15
2019-05-12T01:48:09.653Z,80.91
2019-05-12T01:50:38.659Z,80.54
2019-05-12T01:53:08.178Z,79.78
2019-05-12T01:55:34.876Z,79.38
2019-05-12T01:58:01.954Z,79.34
2019-05-12T02:00:29.330Z,78.87
2019-05-12T02:02:58.588Z,78.74
2019-05-12T02:05:27.958Z,78.29
2019-05-12T02:07:58.449Z,78.07
2019-05-12T02:10:25.193Z,77.96
2019-05-12T02:12:52.258Z,78.49
2019-05-12T02:15:19.894Z,77.69
2019-05-12T02:17:48.191Z,77.16
2019-05-12T02:20:18.042Z,77.32
2019-05-12T02:22:47.586Z,77.14
2019-05-12T02:25:14.928Z,77.51
2019-05-12T02:27:41.967Z,77.28
2019-05-12T02:30:10.247Z,77.30
2019-05-12T02:32:48.713Z,77.26
2019-05-12T02:35:07.352Z,77.31
2019-05-12T02:37:35.708Z,77.79
2019-05-12T02:40:05.303Z,77.92
2019-05-12T02:42:34.894Z,78.26
2019-05-12T02:45:05.243Z,78.41
2019-05-12T02:47:30.737Z,78.53
2019-05-12T02:49:59.283Z,78.40
2019-05-12T02:52:26.303Z,78.19
2019-05-12T02:54:59.785Z,77.90
2019-05-12T02:57:25.555Z,77.86
2019-05-12T02:59:56.736Z,78.80
2019-05-12T03:02:26.306Z,78.66
2019-05-12T03:04:54.997Z,79.42
2019-05-12T03:07:25.621Z,79.84
2019-05-12T03:09:55.101Z,79.75
2019-05-12T03:12:25.285Z,79.27
2019-05-12T03:14:54.260Z,79.06
2019-05-12T03:17:20.281Z,79.39
2019-05-12T03:19:47.315Z,80.43
2019-05-12T03:22:14.364Z,81.31
2019-05-12T03:24:44.704Z,81.63
2019-05-12T03:27:17.207Z,81.55
2019-05-12T03:29:40.483Z,81.56
2019-05-12T03:32:08.749Z,81.57
2019-05-12T03:34:38.274Z,81.82
2019-05-12T03:37:07.830Z,81.56
2019-05-12T03:39:36.061Z,81.14
2019-05-12T03:42:05.180Z,80.65
2019-05-12T03:44:35.023Z,79.78
2019-05-12T03:47:01.121Z,78.82
2019-05-12T03:49:28.118Z,78.06
2019-05-12T03:51:55.176Z,77.77
2019-05-12T03:54:24.345Z,77.62
2019-05-12T03:56:51.229Z,77.77
2019-05-12T03:59:18.270Z,77.84
2019-05-12T04:01:45.512Z,77.83
2019-05-12T04:04:15.330Z,78.73
2019-05-12T04:06:45.294Z,79.56
2019-05-12T04:09:15.454Z,79.86
2019-05-12T04:11:44.531Z,80.04
2019-05-12T04:14:14.609Z,80.32
2019-05-12T04:16:41.200Z,79.56
2019-05-12T04:19:08.223Z,78.80
2019-05-12T04:21:35.660Z,77.53
2019-05-12T04:24:05.502Z,77.04
2019-05-12T04:26:35.801Z,76.52
2019-05-12T04:29:00.846Z,76.20
2019-05-12T04:31:27.879Z,76.17
2019-05-12T04:33:55.722Z,76.07
2019-05-12T04:36:24.863Z,75.73
2019-05-12T04:38:55.266Z,75.40
2019-05-12T04:41:20.650Z,75.12
2019-05-12T04:43:48.684Z,74.65
2019-05-12T04:46:15.733Z,74.32
2019-05-12T04:48:45.324Z,73.78
2019-05-12T04:51:15.367Z,73.74
2019-05-12T04:53:44.852Z,71.85
2019-05-12T04:56:19.239Z,71.96
2019-05-12T04:58:45.020Z,71.81
2019-05-12T05:01:15.462Z,69.34
2019-05-12T05:03:45.465Z,71.19
2019-05-12T05:06:14.920Z,71.04
2019-05-12T05:08:44.293Z,70.33
2019-05-12T05:11:14.559Z,70.02
2019-05-12T05:13:40.741Z,69.39
2019-05-12T05:16:07.796Z,68.01
2019-05-12T05:18:34.865Z,67.79
2019-05-12T05:21:04.661Z,65.91
2019-05-12T05:23:33.491Z,65.84
2019-05-12T05:26:03.267Z,65.40
2019-05-12T05:28:33.979Z,66.16
2019-05-12T05:31:03.490Z,63.92
2019-05-12T05:33:30.742Z,65.08
2019-05-12T05:35:57.778Z,63.48
2019-05-12T05:38:24.935Z,61.77
2019-05-12T05:40:53.990Z,65.50
2019-05-12T05:43:24.173Z,64.52
2019-05-12T05:45:54.537Z,62.70
2019-05-12T05:48:20.343Z,59.69
2019-05-12T05:50:47.384Z,60.08
2019-05-12T05:53:19.561Z,58.45
2019-05-12T05:55:44.222Z,58.71
2019-05-12T05:58:15.421Z,59.18
2019-05-12T06:00:43.468Z,59.24
2019-05-12T06:03:17.009Z,58.32
2019-05-12T06:05:39.591Z,56.64
2019-05-12T06:08:09.624Z,58.00
2019-05-12T06:10:40.523Z,61.11
2019-05-12T06:13:07.711Z,59.40
2019-05-12T06:15:40.704Z,60.10
2019-05-12T06:18:08.396Z,60.70
2019-05-12T06:20:38.050Z,61.82
2019-05-12T06:23:05.700Z,62.99
2019-05-12T06:25:46.030Z,63.46
2019-05-12T06:28:08.874Z,63.19
2019-05-12T06:30:44.317Z,64.11
2019-05-12T06:33:06.738Z,65.13
2019-05-12T06:35:42.125Z,66.25
2019-05-12T06:38:08.293Z,66.54
2019-05-12T06:40:41.022Z,65.88
2019-05-12T06:43:04.945Z,65.73
2019-05-12T06:45:34.008Z,65.47
2019-05-12T06:48:03.255Z,65.08
2019-05-12T06:50:36.975Z,64.39
2019-05-12T06:53:05.254Z,65.45
2019-05-12T06:55:34.437Z,65.28
2019-05-12T06:58:04.462Z,64.88
2019-05-12T07:00:32.652Z,65.86
2019-05-12T07:03:03.932Z,65.26
2019-05-12T07:05:40.807Z,64.57
2019-05-12T07:08:08.988Z,63.43
2019-05-12T07:10:43.403Z,63.09
2019-05-12T07:13:08.747Z,64.27
2019-05-12T07:15:40.561Z,64.91
2019-05-12T07:18:13.713Z,65.15
2019-05-12T07:20:43.587Z,61.99
2019-05-12T07:23:10.775Z,63.19
2019-05-12T07:25:37.868Z,62.68
2019-05-12T07:28:07.926Z,61.09
2019-05-12T07:30:36.137Z,61.91
2019-05-12T07:33:04.876Z,62.04
2019-05-12T07:35:33.949Z,61.88
2019-05-12T07:38:04.275Z,59.89
2019-05-12T07:40:38.919Z,59.08
2019-05-12T07:43:16.361Z,59.21
2019-05-12T07:45:56.567Z,60.00
2019-05-12T07:48:18.012Z,57.80
2019-05-12T07:50:50.307Z,59.71
2019-05-12T07:53:17.884Z,57.59
2019-05-12T07:56:03.960Z,56.99
2019-05-12T07:58:33.620Z,56.43
2019-05-12T08:01:02.949Z,56.35
2019-05-12T08:03:30.800Z,56.07
2019-05-12T08:06:04.484Z,55.64
2019-05-12T08:08:35.643Z,56.99
2019-05-12T08:11:04.377Z,55.97
2019-05-12T08:13:56.933Z,55.49
2019-05-12T08:16:38.577Z,54.29
2019-05-12T08:19:08.547Z,53.70
2019-05-12T08:21:43.555Z,53.63
2019-05-12T08:24:04.870Z,55.05
2019-05-12T08:26:34.921Z,49.76
2019-05-12T08:29:04.472Z,49.51
2019-05-12T08:31:38.512Z,50.77
2019-05-12T08:34:01.015Z,52.06
2019-05-12T08:36:30.792Z,48.23
2019-05-12T08:38:57.948Z,51.24
2019-05-12T08:41:25.546Z,53.64
2019-05-12T08:43:58.142Z,51.94
2019-05-12T08:46:24.295Z,50.07
2019-05-12T08:48:57.977Z,45.73
2019-05-12T08:51:20.731Z,45.57
2019-05-12T08:53:47.833Z,45.69
2019-05-12T08:56:19.363Z,49.07
2019-05-12T08:58:50.928Z,48.09
2019-05-12T09:01:14.396Z,49.82
2019-05-12T09:03:44.269Z,52.04
2019-05-12T09:06:15.510Z,48.80
2019-05-12T09:08:44.891Z,47.93
2019-05-12T09:11:14.400Z,49.90
2019-05-12T09:13:44.064Z,50.83
2019-05-12T09:16:19.293Z,48.83
2019-05-12T09:18:46.476Z,48.83
2019-05-12T09:21:14.226Z,47.95
2019-05-12T09:23:44.980Z,46.36
2019-05-12T09:26:10.745Z,43.16
2019-05-12T09:28:49.250Z,45.70
2019-05-12T09:31:14.136Z,46.77
2019-05-12T09:33:44.679Z,45.45
2019-05-12T09:36:19.792Z,47.68
2019-05-12T09:38:41.151Z,43.81
2019-05-12T09:41:08.363Z,41.44
2019-05-12T09:43:40.135Z,41.75
2019-05-12T09:46:04.628Z,41.14
2019-05-12T09:48:52.079Z,42.28
2019-05-12T09:51:40.671Z,42.43
2019-05-12T09:54:02.205Z,42.78
2019-05-12T09:56:29.496Z,42.87
2019-05-12T09:59:01.571Z,44.70
2019-05-12T10:01:29.413Z,42.60
2019-05-12T10:04:03.304Z,45.88
2019-05-12T10:06:41.297Z,45.82
2019-05-12T10:09:19.823Z,43.99
2019-05-12T10:11:44.855Z,39.92
2019-05-12T10:14:15.098Z,42.22
2019-05-12T10:16:45.671Z,46.11
2019-05-12T10:19:14.416Z,45.28
2019-05-12T10:21:43.852Z,46.53
2019-05-12T10:24:10.886Z,47.46
2019-05-12T10:26:41.190Z,43.37
2019-05-12T10:29:17.520Z,44.99
2019-05-12T10:31:39.403Z,45.29
2019-05-12T10:34:20.504Z,44.69
2019-05-12T10:36:54.169Z,44.23
2019-05-12T10:39:21.316Z,45.49
2019-05-12T10:41:48.606Z,46.11
2019-05-12T10:44:15.799Z,45.11
2019-05-12T10:46:43.864Z,44.86
2019-05-12T10:49:13.937Z,45.03
2019-05-12T10:51:43.623Z,44.93
2019-05-12T10:54:13.146Z,44.30
2019-05-12T10:56:39.219Z,44.90
2019-05-12T10:59:06.439Z,43.65
2019-05-12T11:01:38.367Z,42.51
2019-05-12T11:04:03.934Z,42.96
2019-05-12T11:06:31.173Z,43.16
2019-05-12T11:08:58.277Z,42.43
2019-05-12T11:11:33.020Z,39.84
2019-05-12T11:13:56.884Z,40.92
2019-05-12T11:16:31.137Z,39.99
2019-05-12T11:18:54.226Z,38.05
2019-05-12T11:21:22.465Z,35.21
2019-05-12T11:23:50.743Z,39.43
2019-05-12T11:26:18.804Z,39.83
2019-05-12T11:28:45.878Z,32.53
2019-05-12T11:31:13.633Z,30.81
2019-05-12T11:33:40.892Z,32.57
2019-05-12T11:36:08.287Z,32.69
2019-05-12T11:38:38.611Z,31.24
2019-05-12T11:41:10.174Z,34.07
2019-05-12T11:43:34.618Z,39.41
2019-05-12T11:46:01.994Z,33.50
2019-05-12T11:48:29.091Z,26.96
2019-05-12T11:50:56.125Z,23.89
2019-05-12T11:53:30.247Z,25.88
2019-05-12T11:55:54.322Z,26.39
2019-05-12T11:58:23.453Z,32.96
2019-05-12T12:00:53.346Z,29.85
2019-05-12T12:03:20.558Z,27.68
2019-05-12T12:05:47.639Z,25.43
2019-05-12T12:08:14.745Z,24.26
2019-05-12T12:10:42.120Z,27.52
2019-05-12T12:13:09.292Z,36.10
2019-05-12T12:15:36.490Z,37.40
2019-05-12T12:18:12.967Z,32.84
2019-05-12T12:20:36.595Z,29.41
2019-05-12T12:23:11.097Z,27.36
2019-05-12T12:25:34.214Z,23.53
2019-05-12T12:28:01.597Z,25.50
2019-05-12T12:30:28.742Z,25.02
2019-05-12T12:33:00.285Z,22.03
2019-05-12T12:35:26.857Z,19.25
2019-05-12T12:37:54.241Z,20.62
2019-05-12T12:40:23.091Z,29.41
2019-05-12T12:42:50.155Z,33.27
2019-05-12T12:45:30.463Z,30.62
2019-05-12T12:47:58.134Z,30.69
2019-05-12T12:50:28.555Z,23.50
2019-05-12T12:52:54.208Z,28.98
2019-05-12T12:55:23.319Z,30.69
2019-05-12T12:57:50.842Z,25.26
2019-05-12T13:00:29.873Z,23.87
2019-05-12T13:03:00.138Z,28.23
2019-05-12T13:05:34.553Z,29.98
2019-05-12T13:08:04.089Z,31.22
2019-05-12T13:10:30.734Z,23.98
2019-05-12T13:13:01.122Z,24.04
2019-05-12T13:15:28.390Z,24.17
2019-05-12T13:17:55.468Z,24.53
2019-05-12T13:20:24.331Z,28.48
2019-05-12T13:22:53.516Z,27.38
2019-05-12T13:25:26.349Z,21.86
2019-05-12T13:27:53.551Z,23.26
2019-05-12T13:30:24.340Z,21.90
2019-05-12T13:32:51.519Z,18.74
2019-05-12T13:35:20.169Z,22.03
2019-05-12T13:37:58.440Z,23.20
2019-05-12T13:41:23.223Z,30.74
2019-05-12T13:44:20.786Z,31.43
2019-05-12T13:46:54.725Z,29.45
2019-05-12T13:49:20.591Z,25.34
2019-05-12T13:51:48.862Z,21.84
2019-05-12T13:54:20.170Z,16.65
2019-05-12T13:56:45.818Z,20.44
2019-05-12T13:59:20.760Z,20.93
2019-05-12T14:01:46.847Z,18.91
2019-05-12T14:04:22.164Z,24.41
2019-05-12T14:06:48.708Z,23.02
2019-05-12T14:09:16.106Z,25.60
2019-05-12T14:11:43.669Z,23.06
2019-05-12T14:14:15.401Z,17.54
2019-05-12T14:16:44.679Z,16.82
2019-05-12T14:19:11.521Z,19.55
2019-05-12T14:21:41.528Z,21.41
2019-05-12T14:24:13.726Z,23.92
2019-05-12T14:26:47.582Z,27.22
2019-05-12T14:29:10.327Z,25.78
2019-05-12T14:31:45.402Z,25.78
2019-05-12T14:34:10.401Z,20.99
2019-05-12T14:36:37.686Z,18.34
2019-05-12T14:39:10.289Z,21.04
2019-05-12T14:41:44.487Z,19.28
2019-05-12T14:44:13.749Z,21.13
2019-05-12T14:46:46.250Z,22.85
2019-05-12T14:49:14.025Z,25.22
2019-05-12T14:51:41.136Z,24.12
2019-05-12T14:54:08.632Z,28.89
2019-05-12T14:56:53.029Z,28.79
2019-05-12T14:59:16.086Z,25.02
2019-05-12T15:01:57.441Z,25.14
2019-05-12T15:04:27.982Z,20.75
2019-05-12T15:06:50.375Z,20.48
2019-05-12T15:09:21.791Z,23.55
2019-05-12T15:11:47.852Z,22.61
2019-05-12T15:14:14.916Z,24.36
2019-05-12T15:16:44.691Z,23.79
2019-05-12T15:19:14.619Z,22.97
2019-05-12T15:21:43.680Z,21.24
2019-05-12T15:24:15.449Z,25.61
2019-05-12T15:26:43.540Z,29.38
2019-05-12T15:29:13.287Z,31.85
2019-05-12T15:31:52.761Z,33.51
2019-05-12T15:34:14.402Z,33.82
2019-05-12T15:36:43.682Z,28.91
2019-05-12T15:39:10.852Z,25.48
2019-05-12T15:41:38.073Z,29.58
2019-05-12T15:44:06.615Z,33.42
2019-05-12T15:46:41.016Z,34.73
2019-05-12T15:49:03.674Z,34.88
2019-05-12T15:51:35.066Z,35.46
2019-05-12T15:54:06.576Z,35.64
2019-05-12T15:56:32.314Z,32.61
2019-05-12T15:59:01.113Z,26.18
2019-05-12T16:01:35.941Z,24.00
2019-05-12T16:04:03.772Z,24.47
2019-05-12T16:06:31.179Z,30.03
2019-05-12T16:08:58.517Z,33.08
2019-05-12T16:11:25.972Z,34.91
2019-05-12T16:14:03.848Z,35.36
2019-05-12T16:16:36.408Z,35.59
2019-05-12T16:19:01.272Z,32.75
2019-05-12T16:21:28.882Z,29.82
2019-05-12T16:24:04.886Z,29.19
2019-05-12T16:26:33.540Z,28.61
2019-05-12T16:29:05.862Z,31.38
2019-05-12T16:31:33.932Z,31.43
2019-05-12T16:34:05.903Z,29.20
2019-05-12T16:36:33.607Z,29.91
2019-05-12T16:39:07.661Z,32.13
2019-05-12T16:41:34.876Z,32.84
2019-05-12T16:44:07.848Z,30.75
2019-05-12T16:46:31.061Z,27.92
2019-05-12T16:49:03.346Z,28.08
2019-05-12T16:51:33.283Z,31.38
2019-05-12T16:54:06.936Z,32.43
2019-05-12T16:56:34.496Z,32.97
2019-05-12T16:59:07.248Z,32.00
2019-05-12T17:01:33.464Z,31.13
2019-05-12T17:04:00.668Z,29.45
2019-05-12T17:06:34.936Z,29.04
2019-05-12T17:09:03.213Z,29.94
2019-05-12T17:11:37.452Z,29.88
2019-05-12T17:14:05.090Z,32.00
2019-05-12T17:16:42.104Z,32.97
2019-05-12T17:19:10.628Z,33.48
2019-05-12T17:21:44.096Z,33.99
2019-05-12T17:24:16.876Z,33.11
2019-05-12T17:26:47.189Z,29.85
2019-05-12T17:29:14.430Z,29.42
2019-05-12T17:31:45.137Z,30.27
2019-05-12T17:34:14.256Z,30.63
2019-05-12T17:36:41.720Z,30.20
2019-05-12T17:39:13.856Z,31.42
2019-05-12T17:41:46.179Z,34.10
2019-05-12T17:44:13.679Z,35.62
2019-05-12T17:46:46.537Z,36.61
2019-05-12T17:49:25.352Z,37.05
2019-05-12T17:51:47.915Z,36.97
2019-05-12T17:54:21.529Z,37.99
2019-05-12T17:56:45.526Z,38.05
2019-05-12T17:59:27.605Z,38.71
2019-05-12T18:01:46.511Z,39.07
2019-05-12T18:04:14.067Z,39.24
2019-05-12T18:06:44.137Z,39.51
2019-05-12T18:09:15.835Z,40.12
2019-05-12T18:11:40.971Z,39.08
2019-05-12T18:14:09.468Z,38.38
2019-05-12T18:16:36.585Z,39.27
2019-05-12T18:19:08.908Z,41.23
2019-05-12T18:21:34.730Z,38.43
2019-05-12T18:24:08.887Z,37.80
2019-05-12T18:26:33.828Z,38.05
2019-05-12T18:29:15.909Z,39.11
2019-05-12T18:31:53.419Z,39.55
2019-05-12T18:34:21.185Z,38.92
2019-05-12T18:36:54.814Z,38.45
2019-05-12T18:39:17.279Z,38.73
2019-05-12T18:41:44.601Z,38.73
2019-05-12T18:44:25.271Z,39.35
2019-05-12T18:46:49.460Z,39.58
2019-05-12T18:49:16.816Z,39.38
2019-05-12T18:51:49.166Z,40.06
2019-05-12T18:54:15.612Z,40.23
2019-05-12T18:56:52.488Z,41.37
2019-05-12T18:59:18.778Z,41.95
2019-05-12T19:01:45.967Z,43.20
2019-05-12T19:04:14.340Z,43.57
2019-05-12T19:06:43.801Z,44.32
2019-05-12T19:09:15.183Z,44.48
2019-05-12T19:11:46.441Z,44.43
2019-05-12T19:14:13.502Z,44.85
2019-05-12T19:16:40.448Z,43.86
2019-05-12T19:19:09.711Z,44.85
2019-05-12T19:21:39.789Z,45.31
2019-05-12T19:24:17.523Z,45.52
2019-05-12T19:26:40.478Z,45.66
2019-05-12T19:29:08.569Z,46.54
2019-05-12T19:31:36.680Z,46.56
2019-05-12T19:34:18.765Z,47.18
2019-05-12T19:36:45.063Z,48.08
2019-05-12T19:39:11.492Z,48.41
2019-05-12T19:41:38.666Z,48.54
2019-05-12T19:44:05.755Z,48.17
2019-05-12T19:46:34.196Z,47.90
2019-05-12T19:49:04.438Z,47.85
2019-05-12T19:51:31.972Z,47.89
2019-05-12T19:53:59.222Z,47.44
2019-05-12T19:56:34.525Z,47.65
2019-05-12T19:58:57.308Z,47.71
2019-05-12T20:01:32.356Z,47.98
2019-05-12T20:04:03.568Z,48.09
2019-05-12T20:06:39.065Z,47.86
2019-05-12T20:09:10.923Z,48.24
2019-05-12T20:11:39.573Z,48.37
2019-05-12T20:14:10.041Z,48.54
2019-05-12T20:16:37.036Z,49.19
2019-05-12T20:19:04.490Z,49.84
2019-05-12T20:21:34.019Z,50.40
2019-05-12T20:24:03.696Z,50.86
2019-05-12T20:26:33.274Z,50.73
2019-05-12T20:29:00.234Z,51.10
2019-05-12T20:31:27.672Z,51.34
2019-05-12T20:34:03.433Z,51.18
2019-05-12T20:36:27.735Z,51.39
2019-05-12T20:38:55.013Z,51.61
2019-05-12T20:41:26.570Z,51.83
2019-05-12T20:43:52.733Z,52.33
2019-05-12T20:46:24.285Z,52.94
2019-05-12T20:48:48.908Z,53.52
2019-05-12T20:51:20.054Z,53.83
2019-05-12T20:53:45.068Z,54.16
2019-05-12T20:56:18.503Z,54.56
2019-05-12T20:58:44.296Z,53.80
2019-05-12T21:01:10.295Z,54.00
2019-05-12T21:03:39.861Z,54.12
2019-05-12T21:06:09.004Z,53.86
2019-05-12T21:08:36.104Z,53.52
2019-05-12T21:11:03.171Z,53.85
2019-05-12T21:13:31.895Z,54.12
2019-05-12T21:15:59.413Z,53.95
2019-05-12T21:18:26.714Z,54.09
2019-05-12T21:20:56.716Z,54.43
2019-05-12T21:23:24.270Z,55.20
2019-05-12T21:25:55.963Z,55.51
2019-05-12T21:28:23.858Z,55.44
2019-05-12T21:30:53.142Z,55.85
2019-05-12T21:33:19.921Z,55.79
2019-05-12T21:35:47.205Z,55.60
2019-05-12T21:38:25.165Z,56.24
2019-05-12T21:40:51.182Z,56.39
2019-05-12T21:43:20.495Z,56.71
2019-05-12T21:45:47.591Z,56.75
2019-05-12T21:48:23.686Z,56.82
2019-05-12T21:50:46.138Z,57.37
2019-05-12T21:53:20.597Z,57.49
2019-05-12T21:55:46.897Z,57.41
2019-05-12T21:58:15.259Z,57.92
2019-05-12T22:00:50.548Z,58.21
2019-05-12T22:03:18.903Z,58.77
2019-05-12T22:05:51.354Z,58.87
2019-05-12T22:08:22.199Z,58.73
2019-05-12T22:10:47.489Z,59.24
2019-05-12T22:13:17.972Z,59.46
2019-05-12T22:15:44.691Z,59.02
2019-05-12T22:18:13.079Z,59.10
2019-05-12T22:20:40.153Z,59.49
2019-05-12T22:23:11.952Z,59.73
2019-05-12T22:25:36.192Z,59.46
2019-05-12T22:28:07.859Z,59.30
2019-05-12T22:30:34.866Z,59.93
2019-05-12T22:33:05.938Z,60.68
2019-05-12T22:35:30.840Z,61.21
2019-05-12T22:37:57.880Z,61.28
2019-05-12T22:40:24.997Z,61.14
2019-05-12T22:42:57.060Z,61.56
2019-05-12T22:45:23.985Z,61.78
2019-05-12T22:47:55.322Z,61.39
2019-05-12T22:50:22.075Z,61.99
2019-05-12T22:52:49.561Z,62.43
2019-05-12T22:55:21.308Z,62.96
2019-05-12T22:57:46.123Z,63.35
2019-05-12T23:00:19.220Z,63.95
2019-05-12T23:02:44.849Z,63.66
2019-05-12T23:05:18.521Z,63.66
2019-05-12T23:07:43.959Z,63.87
2019-05-12T23:10:14.055Z,63.79
2019-05-12T23:12:40.148Z,63.86
2019-05-12T23:15:07.777Z,63.66
2019-05-12T23:17:38.961Z,63.67
2019-05-12T23:20:04.990Z,63.52
2019-05-12T23:22:34.998Z,63.84
2019-05-12T23:25:03.825Z,64.22
2019-05-12T23:27:30.174Z,64.65
2019-05-12T23:30:01.429Z,64.84
2019-05-12T23:32:26.221Z,64.18
2019-05-12T23:34:58.403Z,63.57
2019-05-12T23:37:24.400Z,64.15
2019-05-12T23:39:53.731Z,64.88
2019-05-12T23:42:20.975Z,65.34
2019-05-12T23:44:49.121Z,65.59
2019-05-12T23:47:16.354Z,65.93
2019-05-12T23:49:44.397Z,65.82
2019-05-12T23:52:14.032Z,65.51
2019-05-12T23:54:41.038Z,66.08
2019-05-12T23:57:12.934Z,65.70
2019-05-12T23:59:39.159Z,64.98
